createdAt,value
2018-09-13T00:01:20.968Z,101634.83
2018-09-13T00:03:49.200Z,101632.30
2018-09-13T00:06:17.403Z,101634.08
2018-09-13T00:08:45.653Z,101633.27
2018-09-13T00:11:13.913Z,101628.17
2018-09-13T00:13:42.143Z,101619.60
2018-09-13T00:16:10.449Z,101626.51
2018-09-13T00:18:38.712Z,101626.10
2018-09-13T00:21:07.048Z,101622.67
2018-09-13T00:23:35.300Z,101626.97
2018-09-13T00:26:03.523Z,101620.53
2018-09-13T00:28:31.736Z,101625.25
2018-09-13T00:30:59.969Z,101624.00
2018-09-13T00:33:28.184Z,101628.34
2018-09-13T00:35:56.420Z,101625.77
2018-09-13T00:38:24.630Z,101625.78
2018-09-13T00:40:52.851Z,101626.23
2018-09-13T00:43:21.061Z,101621.09
2018-09-13T00:45:49.271Z,101619.36
2018-09-13T00:48:17.480Z,101626.67
2018-09-13T00:50:45.710Z,101630.11
2018-09-13T00:53:13.911Z,101626.66
2018-09-13T00:55:42.228Z,101622.78
2018-09-13T00:58:10.452Z,101618.89
2018-09-13T01:00:38.686Z,101618.89
2018-09-13T01:03:06.995Z,101612.84
2018-09-13T01:05:35.226Z,101613.70
2018-09-13T01:08:03.436Z,101614.14
2018-09-13T01:10:31.659Z,101617.16
2018-09-13T01:12:59.861Z,101625.80
2018-09-13T01:15:28.088Z,101622.78
2018-09-13T01:17:56.276Z,101624.11
2018-09-13T01:20:24.503Z,101615.91
2018-09-13T01:22:52.720Z,101615.07
2018-09-13T01:25:20.947Z,101615.95
2018-09-13T01:27:49.148Z,101614.25
2018-09-13T01:30:17.360Z,101615.98
2018-09-13T01:32:45.579Z,101612.07
2018-09-13T01:35:13.809Z,101608.66
2018-09-13T01:37:42.027Z,101606.48
2018-09-13T01:40:10.237Z,101602.59
2018-09-13T01:42:38.465Z,101601.27
2018-09-13T01:45:06.680Z,101603.02
2018-09-13T01:47:34.921Z,101605.16
2018-09-13T01:50:03.128Z,101603.82
2018-09-13T01:52:31.376Z,101596.95
2018-09-13T01:54:59.592Z,101596.91
2018-09-13T01:57:27.829Z,101592.17
2018-09-13T01:59:56.064Z,101594.73
2018-09-13T02:02:24.304Z,101592.56
2018-09-13T02:04:52.518Z,101593.89
2018-09-13T02:07:20.749Z,101591.23
2018-09-13T02:09:48.957Z,101585.63
2018-09-13T02:12:17.183Z,101580.44
2018-09-13T02:14:45.388Z,101575.75
2018-09-13T02:17:13.616Z,101578.34
2018-09-13T02:19:41.820Z,101574.90
2018-09-13T02:22:10.061Z,101572.76
2018-09-13T02:24:38.280Z,101568.44
2018-09-13T02:27:06.500Z,101568.44
2018-09-13T02:29:34.719Z,101563.31
2018-09-13T02:32:02.930Z,101558.94
2018-09-13T02:34:31.165Z,101557.64
2018-09-13T02:36:59.377Z,101561.08
2018-09-13T02:39:27.604Z,101565.31
2018-09-13T02:41:56.084Z,101558.47
2018-09-13T02:44:24.307Z,101557.61
2018-09-13T02:46:52.516Z,101559.37
2018-09-13T02:49:20.795Z,101555.45
2018-09-13T02:51:48.977Z,101546.89
2018-09-13T02:54:17.225Z,101544.72
2018-09-13T02:56:45.440Z,101557.98
2018-09-13T02:59:13.697Z,101552.02
2018-09-13T03:01:41.932Z,101545.50
2018-09-13T03:04:10.204Z,101540.74
2018-09-13T03:06:38.456Z,101538.60
2018-09-13T03:09:09.168Z,101539.42
2018-09-13T03:11:37.531Z,101535.55
2018-09-13T03:14:05.847Z,101534.22
2018-09-13T03:16:34.075Z,101538.95
2018-09-13T03:19:02.373Z,101538.11
2018-09-13T03:21:30.623Z,101547.50
2018-09-13T03:23:58.856Z,101541.07
2018-09-13T03:26:27.067Z,101539.76
2018-09-13T03:28:55.383Z,101534.16
2018-09-13T03:31:23.711Z,101537.09
2018-09-13T03:33:51.951Z,101536.30
2018-09-13T03:36:20.187Z,101540.14
2018-09-13T03:38:48.404Z,101532.76
2018-09-13T03:41:16.635Z,101536.61
2018-09-13T03:43:44.856Z,101536.60
2018-09-13T03:46:13.129Z,101540.51
2018-09-13T03:48:41.348Z,101538.71
2018-09-13T03:51:09.598Z,101544.77
2018-09-13T03:53:37.800Z,101542.15
2018-09-13T03:56:06.333Z,101543.31
2018-09-13T03:58:34.634Z,101543.33
2018-09-13T04:01:02.949Z,101546.66
2018-09-13T04:03:31.262Z,101549.12
2018-09-13T04:05:59.426Z,101552.56
2018-09-13T04:08:28.053Z,101555.11
2018-09-13T04:10:56.393Z,101552.66
2018-09-13T04:13:24.812Z,101556.02
2018-09-13T04:15:53.055Z,101551.83
2018-09-13T04:18:21.356Z,101551.43
2018-09-13T04:20:50.140Z,101547.19
2018-09-13T04:23:18.384Z,101547.65
2018-09-13T04:25:46.640Z,101547.62
2018-09-13T04:28:14.861Z,101550.96
2018-09-13T04:30:43.103Z,101552.25
2018-09-13T04:33:11.337Z,101547.42
2018-09-13T04:35:39.681Z,101542.69
2018-09-13T04:38:07.862Z,101542.63
2018-09-13T04:40:36.820Z,101541.38
2018-09-13T04:43:05.076Z,101541.42
2018-09-13T04:45:33.292Z,101549.98
2018-09-13T04:48:01.529Z,101552.16
2018-09-13T04:50:29.733Z,101549.44
2018-09-13T04:52:57.989Z,101548.09
2018-09-13T04:55:26.209Z,101553.62
2018-09-13T04:57:54.499Z,101546.77
2018-09-13T05:00:22.762Z,101551.95
2018-09-13T05:02:50.962Z,101557.56
2018-09-13T05:05:19.219Z,101551.09
2018-09-13T05:07:47.468Z,101553.73
2018-09-13T05:10:15.679Z,101553.23
2018-09-13T05:12:43.988Z,101555.60
2018-09-13T05:15:12.147Z,101558.53
2018-09-13T05:17:40.382Z,101561.88
2018-09-13T05:20:08.610Z,101555.84
2018-09-13T05:22:36.856Z,101552.09
2018-09-13T05:25:05.129Z,101540.14
2018-09-13T05:27:33.512Z,101543.67
2018-09-13T05:30:01.756Z,101542.92
2018-09-13T05:32:30.146Z,101540.72
2018-09-13T05:34:58.381Z,101549.81
2018-09-13T05:37:26.672Z,101559.14
2018-09-13T05:39:54.902Z,101547.50
2018-09-13T05:42:23.136Z,101547.10
2018-09-13T05:44:51.421Z,101549.34
2018-09-13T05:47:20.446Z,101554.05
2018-09-13T05:49:48.736Z,101556.38
2018-09-13T05:52:16.963Z,101554.00
2018-09-13T05:54:45.249Z,101551.55
2018-09-13T05:57:13.797Z,101549.73
2018-09-13T05:59:42.069Z,101558.16
2018-09-13T06:02:10.309Z,101557.41
2018-09-13T06:04:38.540Z,101547.92
2018-09-13T06:07:06.797Z,101562.07
2018-09-13T06:09:35.048Z,101565.17
2018-09-13T06:12:03.276Z,101562.69
2018-09-13T06:14:31.520Z,101563.59
2018-09-13T06:17:00.498Z,101564.05
2018-09-13T06:19:28.749Z,101561.97
2018-09-13T06:21:56.977Z,101556.39
2018-09-13T06:24:25.263Z,101559.36
2018-09-13T06:26:53.468Z,101554.95
2018-09-13T06:29:21.757Z,101564.90
2018-09-13T06:31:49.933Z,101560.27
2018-09-13T06:34:18.204Z,101564.13
2018-09-13T06:36:46.416Z,101571.56
2018-09-13T06:39:14.681Z,101570.77
2018-09-13T06:41:42.889Z,101570.72
2018-09-13T06:44:11.364Z,101570.80
2018-09-13T06:46:39.919Z,101572.27
2018-09-13T06:49:08.336Z,101577.38
2018-09-13T06:51:36.559Z,101573.03
2018-09-13T06:54:04.835Z,101573.04
2018-09-13T06:56:33.047Z,101572.63
2018-09-13T06:59:01.349Z,101575.75
2018-09-13T07:01:29.608Z,101575.73
2018-09-13T07:03:57.816Z,101575.25
2018-09-13T07:06:26.071Z,101570.64
2018-09-13T07:08:54.356Z,101577.56
2018-09-13T07:11:22.594Z,101571.17
2018-09-13T07:13:51.823Z,101577.27
2018-09-13T07:16:20.048Z,101575.98
2018-09-13T07:18:48.385Z,101579.00
2018-09-13T07:21:16.664Z,101575.95
2018-09-13T07:23:44.948Z,101576.34
2018-09-13T07:26:13.183Z,101584.10
2018-09-13T07:28:41.408Z,101579.83
2018-09-13T07:31:09.658Z,101578.60
2018-09-13T07:33:38.055Z,101573.88
2018-09-13T07:36:06.299Z,101573.86
2018-09-13T07:38:34.496Z,101577.16
2018-09-13T07:41:02.737Z,101584.06
2018-09-13T07:43:30.948Z,101581.48
2018-09-13T07:45:59.180Z,101579.74
2018-09-13T07:48:27.396Z,101584.36
2018-09-13T07:50:55.615Z,101581.75
2018-09-13T07:53:23.880Z,101585.20
2018-09-13T07:55:52.139Z,101586.17
2018-09-13T07:58:20.376Z,101579.75
2018-09-13T08:00:48.584Z,101589.68
2018-09-13T08:03:16.820Z,101587.95
2018-09-13T08:05:45.014Z,101585.37
2018-09-13T08:08:13.235Z,101583.70
2018-09-13T08:10:41.443Z,101586.27
2018-09-13T08:13:09.697Z,101595.75
2018-09-13T08:15:37.936Z,101593.17
2018-09-13T08:18:06.177Z,101597.48
2018-09-13T08:20:34.432Z,101605.58
2018-09-13T08:23:02.681Z,101606.45
2018-09-13T08:25:30.892Z,101602.67
2018-09-13T08:27:59.832Z,101596.70
2018-09-13T08:30:28.085Z,101606.09
2018-09-13T08:32:56.319Z,101603.50
2018-09-13T08:35:24.838Z,101602.81
2018-09-13T08:37:53.132Z,101600.78
2018-09-13T08:40:21.526Z,101597.88
2018-09-13T08:42:49.653Z,101609.08
2018-09-13T08:45:17.892Z,101613.27
2018-09-13T08:47:46.145Z,101612.41
2018-09-13T08:50:14.392Z,101611.18
2018-09-13T08:52:42.629Z,101607.36
2018-09-13T08:55:10.954Z,101613.84
2018-09-13T08:57:39.969Z,101609.20
2018-09-13T09:00:10.180Z,101612.98
2018-09-13T09:02:38.638Z,101621.02
2018-09-13T09:05:07.136Z,101616.11
2018-09-13T09:07:35.903Z,101613.17
2018-09-13T09:10:05.095Z,101618.80
2018-09-13T09:12:33.384Z,101616.11
2018-09-13T09:15:01.624Z,101611.40
2018-09-13T09:17:29.848Z,101610.61
2018-09-13T09:19:58.525Z,101618.34
2018-09-13T09:22:26.788Z,101611.49
2018-09-13T09:24:55.696Z,101606.33
2018-09-13T09:27:24.004Z,101608.13
2018-09-13T09:29:52.361Z,101603.53
2018-09-13T09:32:20.550Z,101603.93
2018-09-13T09:34:48.830Z,101601.78
2018-09-13T09:37:17.028Z,101600.86
2018-09-13T09:39:45.353Z,101594.44
2018-09-13T09:42:13.508Z,101593.95
2018-09-13T09:44:41.749Z,101590.19
2018-09-13T09:47:09.988Z,101595.91
2018-09-13T09:49:38.231Z,101594.21
2018-09-13T09:52:06.529Z,101585.89
2018-09-13T09:54:34.740Z,101589.87
2018-09-13T09:57:02.992Z,101585.91
2018-09-13T09:59:31.216Z,101595.43
2018-09-13T10:02:04.704Z,101598.56
2018-09-13T10:04:32.991Z,101602.83
2018-09-13T10:07:01.332Z,101599.81
2018-09-13T10:09:29.553Z,101596.38
2018-09-13T10:11:57.843Z,101601.12
2018-09-13T10:14:26.029Z,101604.59
2018-09-13T10:16:59.520Z,101601.57
2018-09-13T10:19:33.160Z,101598.86
2018-09-13T10:23:06.546Z,101591.05
2018-09-13T10:25:40.061Z,101595.39
2018-09-13T10:28:13.728Z,101593.36
2018-09-13T10:30:47.410Z,101593.01
2018-09-13T10:33:20.904Z,101589.49
2018-09-13T10:35:54.671Z,101588.11
2018-09-13T10:38:28.264Z,101586.43
2018-09-13T10:41:01.772Z,101587.83
2018-09-13T10:43:35.250Z,101583.54
2018-09-13T10:46:08.835Z,101581.32
2018-09-13T10:48:37.030Z,101578.39
2018-09-13T10:51:11.352Z,101595.52
2018-09-13T10:53:44.016Z,101583.14
2018-09-13T10:56:12.344Z,101589.63
2018-09-13T10:58:40.899Z,101583.12
2018-09-13T11:01:09.128Z,101584.49
2018-09-13T11:03:37.393Z,101575.45
2018-09-13T11:06:05.634Z,101574.98
2018-09-13T11:08:33.868Z,101578.91
2018-09-13T11:11:02.200Z,101575.91
2018-09-13T11:13:38.347Z,101584.11
2018-09-13T11:16:06.648Z,101577.69
2018-09-13T11:18:35.017Z,101581.51
2018-09-13T11:21:03.228Z,101582.81
2018-09-13T11:23:31.472Z,101574.16
2018-09-13T11:25:59.683Z,101580.59
2018-09-13T11:28:27.936Z,101578.43
2018-09-13T11:31:02.708Z,101577.99
2018-09-13T11:33:31.404Z,101578.36
2018-09-13T11:35:59.695Z,101572.72
2018-09-13T11:38:27.956Z,101568.03
2018-09-13T11:40:56.694Z,101566.36
2018-09-13T11:43:24.759Z,101565.55
2018-09-13T11:45:52.985Z,101569.42
2018-09-13T11:48:21.230Z,101563.84
2018-09-13T11:50:49.460Z,101572.09
2018-09-13T11:53:17.687Z,101571.64
2018-09-13T11:55:46.384Z,101568.61
2018-09-13T11:58:15.792Z,101566.89
2018-09-13T12:00:44.082Z,101564.75
2018-09-13T12:03:13.335Z,101558.73
2018-09-13T12:05:41.583Z,101562.67
2018-09-13T12:08:10.732Z,101559.22
2018-09-13T12:10:38.987Z,101556.61
2018-09-13T12:13:07.235Z,101552.30
2018-09-13T12:15:35.488Z,101552.30
2018-09-13T12:18:03.845Z,101554.45
2018-09-13T12:20:31.980Z,101550.55
2018-09-13T12:23:00.200Z,101555.30
2018-09-13T12:25:28.447Z,101547.91
2018-09-13T12:27:56.709Z,101558.70
2018-09-13T12:30:24.940Z,101554.42
2018-09-13T12:32:53.188Z,101554.43
2018-09-13T12:35:21.437Z,101549.28
2018-09-13T12:37:49.683Z,101553.19
2018-09-13T12:40:17.943Z,101543.64
2018-09-13T12:42:46.188Z,101546.67
2018-09-13T12:45:14.704Z,101542.41
2018-09-13T12:47:42.925Z,101544.12
2018-09-13T12:50:11.157Z,101541.12
2018-09-13T12:52:39.422Z,101534.18
2018-09-13T12:55:07.676Z,101532.48
2018-09-13T12:57:36.011Z,101529.02
2018-09-13T13:00:04.532Z,101521.67
2018-09-13T13:02:32.768Z,101517.30
2018-09-13T13:05:01.039Z,101517.77
2018-09-13T13:07:29.288Z,101514.28
2018-09-13T13:09:57.611Z,101513.84
2018-09-13T13:12:25.896Z,101516.80
2018-09-13T13:14:54.177Z,101516.77
2018-09-13T13:17:22.442Z,101521.18
2018-09-13T13:19:50.692Z,101517.31
2018-09-13T13:22:18.980Z,101513.00
2018-09-13T13:24:47.280Z,101524.19
2018-09-13T13:27:15.603Z,101518.17
2018-09-13T13:29:43.793Z,101515.09
2018-09-13T13:32:12.032Z,101513.73
2018-09-13T13:34:40.247Z,101516.34
2018-09-13T13:37:08.488Z,101515.14
2018-09-13T13:39:36.712Z,101512.13
2018-09-13T13:42:04.956Z,101508.58
2018-09-13T13:44:33.277Z,101502.96
2018-09-13T13:47:01.509Z,101500.48
2018-09-13T13:49:29.887Z,101490.15
2018-09-13T13:51:58.048Z,101490.56
2018-09-13T13:54:26.268Z,101488.81
2018-09-13T13:56:54.498Z,101491.77
2018-09-13T13:59:22.760Z,101491.38
2018-09-13T14:01:51.538Z,101496.08
2018-09-13T14:04:20.995Z,101489.59
2018-09-13T14:06:49.244Z,101488.27
2018-09-13T14:09:17.472Z,101484.89
2018-09-13T14:11:45.933Z,101482.66
2018-09-13T14:14:14.215Z,101474.82
2018-09-13T14:16:43.500Z,101470.84
2018-09-13T14:19:11.727Z,101477.02
2018-09-13T14:21:39.964Z,101480.87
2018-09-13T14:24:08.233Z,101474.36
2018-09-13T14:26:36.501Z,101478.18
2018-09-13T14:29:04.736Z,101477.20
2018-09-13T14:31:33.147Z,101478.39
2018-09-13T14:34:01.460Z,101477.82
2018-09-13T14:36:29.684Z,101474.79
2018-09-13T14:38:57.932Z,101475.70
2018-09-13T14:41:26.165Z,101474.02
2018-09-13T14:43:54.428Z,101470.65
2018-09-13T14:46:22.671Z,101468.01
2018-09-13T14:48:50.884Z,101466.67
2018-09-13T14:51:19.132Z,101463.60
2018-09-13T14:53:47.360Z,101465.23
2018-09-13T14:56:15.613Z,101466.91
2018-09-13T14:58:45.154Z,101464.51
2018-09-13T15:01:13.519Z,101462.91
2018-09-13T15:03:41.768Z,101461.53
2018-09-13T15:06:10.140Z,101460.10
2018-09-13T15:08:38.386Z,101452.03
2018-09-13T15:11:06.705Z,101463.38
2018-09-13T15:13:35.084Z,101456.86
2018-09-13T15:16:03.371Z,101457.41
2018-09-13T15:18:31.635Z,101455.56
2018-09-13T15:20:59.913Z,101456.63
2018-09-13T15:23:28.191Z,101452.65
2018-09-13T15:25:56.530Z,101448.81
2018-09-13T15:28:24.916Z,101446.83
2018-09-13T15:30:53.300Z,101448.13
2018-09-13T15:33:21.517Z,101440.26
2018-09-13T15:35:49.881Z,101440.79
2018-09-13T15:38:18.132Z,101442.52
2018-09-13T15:40:46.411Z,101439.88
2018-09-13T15:43:14.694Z,101442.47
2018-09-13T15:45:42.926Z,101443.23
2018-09-13T15:48:11.161Z,101446.09
2018-09-13T15:50:39.485Z,101446.11
2018-09-13T15:53:07.751Z,101445.72
2018-09-13T15:55:36.000Z,101445.75
2018-09-13T15:58:04.248Z,101444.81
2018-09-13T16:00:32.629Z,101444.49
2018-09-13T16:03:00.936Z,101444.45
2018-09-13T16:05:29.427Z,101445.32
2018-09-13T16:07:57.667Z,101450.81
2018-09-13T16:10:25.924Z,101448.22
2018-09-13T16:12:54.377Z,101450.03
2018-09-13T16:15:22.503Z,101442.26
2018-09-13T16:17:50.768Z,101449.52
2018-09-13T16:20:19.123Z,101442.13
2018-09-13T16:22:47.420Z,101443.43
2018-09-13T16:25:16.235Z,101439.62
2018-09-13T16:27:44.476Z,101434.92
2018-09-13T16:30:12.740Z,101440.57
2018-09-13T16:32:41.013Z,101433.56
2018-09-13T16:35:09.263Z,101436.61
2018-09-13T16:37:43.452Z,101437.00
2018-09-13T16:40:16.684Z,101437.80
2018-09-13T16:42:53.605Z,101439.15
2018-09-13T16:45:26.605Z,101441.83
2018-09-13T16:48:00.431Z,101444.50
2018-09-13T16:50:28.733Z,101446.66
2018-09-13T16:52:57.028Z,101437.98
2018-09-13T16:55:25.289Z,101437.19
2018-09-13T16:57:53.572Z,101441.86
2018-09-13T17:00:23.276Z,101439.70
2018-09-13T17:02:51.584Z,101445.72
2018-09-13T17:05:19.824Z,101446.14
2018-09-13T17:07:48.123Z,101441.35
2018-09-13T17:10:16.587Z,101444.84
2018-09-13T17:12:45.052Z,101449.60
2018-09-13T17:15:13.328Z,101447.84
2018-09-13T17:17:41.656Z,101446.19
2018-09-13T17:20:09.908Z,101448.38
2018-09-13T17:22:38.132Z,101452.27
2018-09-13T17:25:06.473Z,101448.84
2018-09-13T17:27:34.728Z,101449.31
2018-09-13T17:30:03.040Z,101448.45
2018-09-13T17:32:31.344Z,101446.33
2018-09-13T17:35:00.356Z,101446.76
2018-09-13T17:37:28.585Z,101448.05
2018-09-13T17:39:59.021Z,101445.06
2018-09-13T17:42:27.240Z,101445.49
2018-09-13T17:44:55.517Z,101448.98
2018-09-13T17:47:23.792Z,101445.55
2018-09-13T17:49:52.021Z,101447.71
2018-09-13T17:52:20.251Z,101455.97
2018-09-13T17:54:48.505Z,101455.13
2018-09-13T17:57:16.724Z,101457.77
2018-09-13T17:59:45.013Z,101457.33
2018-09-13T18:02:13.260Z,101456.48
2018-09-13T18:04:41.509Z,101456.11
2018-09-13T18:07:10.279Z,101464.77
2018-09-13T18:09:38.656Z,101462.64
2018-09-13T18:12:06.972Z,101461.78
2018-09-13T18:14:35.272Z,101466.52
2018-09-13T18:17:03.514Z,101467.40
2018-09-13T18:19:31.766Z,101466.98
2018-09-13T18:22:00.012Z,101470.84
2018-09-13T18:24:28.253Z,101469.13
2018-09-13T18:26:56.484Z,101469.58
2018-09-13T18:29:24.696Z,101464.81
2018-09-13T18:31:52.945Z,101471.72
2018-09-13T18:34:21.262Z,101472.56
2018-09-13T18:36:49.675Z,101476.86
2018-09-13T18:39:17.980Z,101476.00
2018-09-13T18:41:46.316Z,101476.88
2018-09-13T18:44:14.544Z,101480.30
2018-09-13T18:46:42.800Z,101482.48
2018-09-13T18:55:15.927Z,101485.91
2018-09-13T18:57:44.204Z,101487.63
2018-09-13T19:00:12.446Z,101406.11
2018-09-13T19:02:40.749Z,101486.33
2018-09-13T19:05:09.015Z,101484.16
2018-09-13T19:07:37.314Z,101480.25
2018-09-13T19:10:05.983Z,101486.70
2018-09-13T19:12:34.265Z,101485.83
2018-09-13T19:15:02.515Z,101489.68
2018-09-13T19:17:30.760Z,101490.96
2018-09-13T19:19:58.996Z,101493.89
2018-09-13T19:22:27.268Z,101489.56
2018-09-13T19:24:55.522Z,101497.75
2018-09-13T19:27:23.765Z,101499.91
2018-09-13T19:29:51.977Z,101493.88
2018-09-13T19:32:20.245Z,101494.30
2018-09-13T19:34:48.463Z,101495.98
2018-09-13T19:37:17.238Z,101498.97
2018-09-13T19:39:45.473Z,101497.27
2018-09-13T19:42:15.486Z,101500.70
2018-09-13T19:44:43.740Z,101501.20
2018-09-13T19:47:12.073Z,101499.88
2018-09-13T19:49:40.329Z,101502.89
2018-09-13T19:52:08.621Z,101506.73
2018-09-13T19:54:37.185Z,101510.56
2018-09-13T19:57:05.658Z,101514.81
2018-09-13T19:59:34.017Z,101509.20
2018-09-13T20:02:02.304Z,101510.47
2018-09-13T20:04:30.680Z,101510.45
2018-09-13T20:06:58.952Z,101511.30
2018-09-13T20:09:27.192Z,101513.44
2018-09-13T20:11:55.464Z,101516.41
2018-09-13T20:14:23.770Z,101518.09
2018-09-13T20:16:52.732Z,101511.60
2018-09-13T20:19:21.053Z,101510.28
2018-09-13T20:21:49.332Z,101504.22
2018-09-13T20:24:17.596Z,101508.48
2018-09-13T20:26:46.093Z,101514.50
2018-09-13T20:29:14.488Z,101509.39
2018-09-13T20:31:42.708Z,101517.55
2018-09-13T20:34:10.976Z,101513.19
2018-09-13T20:36:39.321Z,101519.20
2018-09-13T20:39:09.634Z,101514.46
2018-09-13T20:41:37.833Z,101512.27
2018-09-13T20:44:06.340Z,101516.56
2018-09-13T20:46:34.562Z,101513.56
2018-09-13T20:49:02.821Z,101514.41
2018-09-13T20:51:31.050Z,101512.22
2018-09-13T20:53:59.277Z,101510.86
2018-09-13T20:56:27.600Z,101508.25
2018-09-13T20:58:55.852Z,101504.77
2018-09-13T21:01:24.122Z,101509.42
2018-09-13T21:03:52.348Z,101511.95
2018-09-13T21:06:20.661Z,101505.52
2018-09-13T21:08:48.909Z,101504.95
2018-09-13T21:11:17.244Z,101510.91
2018-09-13T21:13:45.485Z,101504.36
2018-09-13T21:16:14.693Z,101505.69
2018-09-13T21:18:42.932Z,101510.05
2018-09-13T21:21:11.180Z,101504.83
2018-09-13T21:23:40.305Z,101506.45
2018-09-13T21:26:08.658Z,101511.04
2018-09-13T21:28:36.954Z,101512.23
2018-09-13T21:31:05.205Z,101504.92
2018-09-13T21:33:33.705Z,101504.05
2018-09-13T21:36:02.265Z,101499.70
2018-09-13T21:38:30.484Z,101502.20
2018-09-13T21:40:58.740Z,101511.20
2018-09-13T21:43:26.969Z,101507.70
2018-09-13T21:45:55.221Z,101507.20
2018-09-13T21:48:23.441Z,101506.78
2018-09-13T21:50:51.718Z,101513.72
2018-09-13T21:53:19.941Z,101509.83
2018-09-13T21:55:48.960Z,101508.91
2018-09-13T21:58:17.180Z,101507.63
2018-09-13T22:00:45.420Z,101508.91
2018-09-13T22:03:13.644Z,101511.07
2018-09-13T22:05:42.232Z,101514.84
2018-09-13T22:08:10.780Z,101510.88
2018-09-13T22:10:40.185Z,101509.05
2018-09-13T22:13:08.413Z,101517.16
2018-09-13T22:15:36.641Z,101517.91
2018-09-13T22:18:04.880Z,101523.41
2018-09-13T22:20:33.124Z,101522.88
2018-09-13T22:23:01.337Z,101520.78
2018-09-13T22:25:30.604Z,101525.12
2018-09-13T22:27:58.812Z,101531.58
2018-09-13T22:30:27.061Z,101525.95
2018-09-13T22:32:55.265Z,101524.19
2018-09-13T22:35:23.517Z,101520.33
2018-09-13T22:37:51.769Z,101527.63
2018-09-13T22:40:19.993Z,101526.70
2018-09-13T22:42:48.347Z,101523.12
2018-09-13T22:45:16.556Z,101526.09
2018-09-13T22:47:44.779Z,101533.22
2018-09-13T22:50:13.012Z,101532.25
2018-09-13T22:52:41.253Z,101524.88
2018-09-13T22:55:09.509Z,101527.91
2018-09-13T22:57:37.733Z,101531.24
2018-09-13T23:00:06.325Z,101530.38
2018-09-13T23:02:39.955Z,101531.66
2018-09-13T23:05:08.201Z,101528.22
2018-09-13T23:07:36.461Z,101531.63
2018-09-13T23:10:04.918Z,101531.66
2018-09-13T23:12:33.192Z,101529.13
2018-09-13T23:15:01.438Z,101527.24
2018-09-13T23:17:29.736Z,101531.48
2018-09-13T23:19:57.940Z,101529.18
2018-09-13T23:22:26.193Z,101533.88
2018-09-13T23:24:54.413Z,101533.11
2018-09-13T23:27:22.684Z,101531.82
2018-09-13T23:29:50.913Z,101533.00
2018-09-13T23:32:19.168Z,101532.44
2018-09-13T23:34:47.387Z,101528.47
2018-09-13T23:37:15.624Z,101533.22
2018-09-13T23:39:44.189Z,101534.96
2018-09-13T23:42:12.108Z,101534.89
2018-09-13T23:44:40.322Z,101533.53
2018-09-13T23:47:08.573Z,101531.45
2018-09-13T23:49:36.852Z,101538.78
2018-09-13T23:52:05.105Z,101539.16
2018-09-13T23:54:33.320Z,101540.36
2018-09-13T23:57:01.583Z,101542.48
2018-09-13T23:59:29.836Z,101542.77
